Time;durP1;ratioP1;P1;durP2;ratioP2;P2;SDS_P1;SDS_P2;PMS_P1;PMS_P2;Temp;Humidity;BMP_temperature;BMP_pressure;BME280_temperature;BME280_humidity;BME280_pressure;Samples;Min_cycle;Max_cycle;Signal;HPM_P1;HPM_P2
2023/07/13 00:00:28;;;;;;;14.50;5.25;;;;;;;27.72;49.18;100953.66;6304268;22;20359;-77
2023/07/13 00:02:54;;;;;;;12.10;4.87;;;;;;;27.76;49.08;100962.06;6304135;22;20362;-75
2023/07/13 00:05:21;;;;;;;10.52;4.78;;;;;;;27.75;49.25;100954.97;6304639;22;20336;-75
2023/07/13 00:07:48;;;;;;;16.15;4.97;;;;;;;27.78;48.69;100963.41;6304302;22;20859;-75
2023/07/13 00:10:13;;;;;;;13.25;5.07;;;;;;;27.80;48.88;100960.41;6304357;22;20334;-75
2023/07/13 00:12:39;;;;;;;13.67;5.10;;;;;;;27.86;48.54;100959.31;6304186;22;20434;-75
2023/07/13 00:15:11;;;;;;;13.52;5.03;;;;;;;27.96;48.20;100953.00;6304101;22;20980;-75
2023/07/13 00:17:38;;;;;;;15.68;5.30;;;;;;;27.97;48.35;100962.81;6304085;22;20353;-75
2023/07/13 00:20:05;;;;;;;10.93;4.85;;;;;;;27.84;48.86;100964.22;6276969;22;20850;-76
2023/07/13 00:22:30;;;;;;;10.95;5.28;;;;;;;27.79;48.83;100962.31;6304506;22;20358;-76
2023/07/13 00:24:56;;;;;;;10.73;5.63;;;;;;;27.76;49.67;100959.34;6277229;22;20350;-76
2023/07/13 00:27:22;;;;;;;14.40;6.40;;;;;;;27.67;50.16;100961.03;6304087;22;20337;-76
2023/07/13 00:29:47;;;;;;;15.07;6.40;;;;;;;27.61;50.66;100971.94;6305290;22;20338;-76
2023/07/13 00:32:13;;;;;;;12.27;6.20;;;;;;;27.52;51.54;100973.59;6305089;22;20330;-76
2023/07/13 00:34:39;;;;;;;14.90;6.63;;;;;;;27.55;51.49;100969.50;6303986;22;20341;-76
2023/07/13 00:37:06;;;;;;;14.93;6.40;;;;;;;27.53;51.90;100961.63;6304428;22;20348;-76
2023/07/13 00:39:35;;;;;;;17.35;6.85;;;;;;;27.50;52.02;100954.00;6304563;22;20644;-76
2023/07/13 00:42:02;;;;;;;14.00;6.97;;;;;;;27.57;52.34;100959.97;6304135;22;20455;-76
2023/07/13 00:44:28;;;;;;;17.63;6.80;;;;;;;27.59;52.04;100959.72;6304186;22;20397;-76
2023/07/13 00:46:55;;;;;;;14.90;7.10;;;;;;;27.46;52.70;100953.75;6277178;22;20334;-76
2023/07/13 00:49:24;;;;;;;14.95;7.05;;;;;;;27.40;53.21;100954.03;6303586;22;20795;-76
2023/07/13 00:51:53;;;;;;;18.58;7.25;;;;;;;27.45;52.94;100956.75;6304053;22;20337;-76
2023/07/13 00:54:29;;;;;;;13.10;6.70;;;;;;;27.56;52.59;100954.81;6304113;22;20341;-76
2023/07/13 00:57:03;;;;;;;16.13;7.03;;;;;;;27.57;52.58;100957.25;6304018;22;20408;-76
2023/07/13 00:59:30;;;;;;;18.23;8.00;;;;;;;27.51;53.00;100957.53;6303943;22;20818;-76
2023/07/13 01:01:55;;;;;;;17.02;9.10;;;;;;;27.44;53.36;100958.66;6303778;22;20417;-76
2023/07/13 01:04:24;;;;;;;16.10;7.43;;;;;;;27.39;53.66;100945.06;6276589;22;20396;-76
2023/07/13 01:06:50;;;;;;;13.63;7.32;;;;;;;27.43;53.22;100942.59;6304027;22;20349;-76
2023/07/13 01:09:15;;;;;;;17.60;7.57;;;;;;;27.50;53.44;100943.13;6303944;22;20338;-77
2023/07/13 01:11:42;;;;;;;15.80;8.65;;;;;;;27.49;53.42;100946.13;6303887;22;20348;-76
2023/07/13 01:14:08;;;;;;;20.73;9.82;;;;;;;27.36;53.72;100942.88;6303898;22;20338;-76
2023/07/13 01:16:36;;;;;;;19.35;9.52;;;;;;;27.30;54.46;100954.91;6276861;22;20342;-77
2023/07/13 01:19:05;;;;;;;18.85;9.48;;;;;;;27.19;54.79;100956.81;6303572;22;20345;-76
2023/07/13 01:21:33;;;;;;;26.30;10.98;;;;;;;27.16;54.87;100949.19;6303861;22;20714;-76
2023/07/13 01:23:59;;;;;;;21.23;11.23;;;;;;;27.13;55.00;100946.19;6303800;22;20441;-76
2023/07/13 01:26:24;;;;;;;25.30;12.65;;;;;;;27.13;55.01;100963.31;6303911;22;20499;-76
2023/07/13 01:28:50;;;;;;;23.37;12.27;;;;;;;27.07;55.68;100953.56;6305274;22;20399;-76
2023/07/13 01:31:15;;;;;;;25.37;12.60;;;;;;;27.16;55.05;100949.19;6278817;22;20348;-76
2023/07/13 01:33:42;;;;;;;24.23;11.98;;;;;;;27.33;54.50;100946.16;6305515;22;20356;-75
2023/07/13 01:36:08;;;;;;;22.33;12.07;;;;;;;27.39;53.89;100939.63;6305775;22;20357;-76
2023/07/13 01:38:35;;;;;;;22.40;11.43;;;;;;;27.44;53.86;100941.50;6305671;22;20330;-76
2023/07/13 01:41:01;;;;;;;20.90;10.57;;;;;;;27.46;53.75;100942.88;6305613;22;20346;-76
2023/07/13 01:43:26;;;;;;;23.88;10.80;;;;;;;27.49;53.67;100941.47;6278381;22;20370;-75
2023/07/13 01:45:52;;;;;;;20.13;10.63;;;;;;;27.55;53.51;100943.09;6305632;22;20794;-75
2023/07/13 01:48:17;;;;;;;22.33;10.87;;;;;;;27.57;53.76;100937.38;6305178;22;20380;-76
2023/07/13 01:50:43;;;;;;;19.10;10.53;;;;;;;27.54;53.52;100930.56;6305622;22;20771;-76
2023/07/13 01:53:09;;;;;;;20.05;9.60;;;;;;;27.57;53.56;100932.75;6305900;22;20893;-76
2023/07/13 01:55:35;;;;;;;20.47;10.03;;;;;;;27.57;53.33;100932.75;6306011;22;20350;-75
2023/07/13 01:58:01;;;;;;;19.83;9.40;;;;;;;27.60;53.37;100928.63;6305433;22;20366;-76
2023/07/13 02:00:27;;;;;;;21.83;9.47;;;;;;;27.59;53.28;100927.84;6305628;22;20770;-76
2023/07/13 02:02:52;;;;;;;24.23;9.35;;;;;;;27.61;53.03;100933.81;6304939;22;20368;-76
2023/07/13 02:05:18;;;;;;;18.02;8.60;;;;;;;27.61;53.33;100944.72;6305428;22;20429;-76
2023/07/13 02:07:44;;;;;;;19.83;9.53;;;;;;;27.56;53.30;100936.56;6305444;22;20341;-76
2023/07/13 02:10:10;;;;;;;19.02;8.27;;;;;;;27.60;53.45;100936.81;6305374;22;20334;-75
2023/07/13 02:12:37;;;;;;;20.83;9.80;;;;;;;27.59;53.42;100946.09;6305494;22;20334;-76
2023/07/13 02:15:03;;;;;;;20.92;9.27;;;;;;;27.60;53.06;100947.69;6305466;22;20334;-76
2023/07/13 02:17:29;;;;;;;19.45;9.00;;;;;;;27.59;52.93;100949.63;6305007;22;20334;-75
2023/07/13 02:19:54;;;;;;;17.60;8.70;;;;;;;27.56;52.96;100943.91;6305684;22;20632;-76
2023/07/13 02:22:20;;;;;;;16.98;8.20;;;;;;;27.56;53.12;100949.38;6278396;22;20389;-75
2023/07/13 02:24:46;;;;;;;19.55;8.95;;;;;;;27.54;53.13;100946.91;6305196;22;20342;-76
2023/07/13 02:27:11;;;;;;;18.50;8.63;;;;;;;27.56;53.18;100947.44;6305098;22;20367;-76
2023/07/13 02:29:37;;;;;;;20.67;8.57;;;;;;;27.55;53.03;100951.28;6278024;22;20464;-75
2023/07/13 02:32:03;;;;;;;18.90;8.50;;;;;;;27.45;53.47;100949.38;6304738;22;20682;-76
2023/07/13 02:34:28;;;;;;;16.02;8.10;;;;;;;27.48;53.38;100955.38;6305100;22;20420;-76
2023/07/13 02:36:54;;;;;;;14.33;7.57;;;;;;;27.48;53.42;100958.09;6305102;22;20801;-76
2023/07/13 02:42:04;;;;;;;14.95;7.68;;;;;;;27.42;53.18;100958.13;6304925;22;20340;-75
2023/07/13 02:44:30;;;;;;;17.63;7.43;;;;;;;27.45;53.44;100959.47;6304989;22;20350;-75
2023/07/13 02:46:55;;;;;;;13.23;7.27;;;;;;;27.46;53.29;100966.56;6304910;22;20425;-75
2023/07/13 02:49:21;;;;;;;15.03;6.97;;;;;;;27.40;53.62;100965.75;6305669;22;20334;-75
2023/07/13 02:51:46;;;;;;;14.85;6.47;;;;;;;27.34;53.27;100964.13;6305658;22;20407;-75
2023/07/13 02:54:13;;;;;;;14.57;6.70;;;;;;;27.34;52.95;100969.56;6278352;22;20763;-75
2023/07/13 02:56:39;;;;;;;12.75;6.43;;;;;;;27.36;53.03;100966.59;6304925;22;20687;-75
2023/07/13 02:59:04;;;;;;;12.07;6.20;;;;;;;27.27;52.67;100971.78;6305044;22;20778;-75
2023/07/13 03:01:32;;;;;;;15.33;6.13;;;;;;;27.27;52.54;100982.66;6277613;22;20787;-75
2023/07/13 03:03:58;;;;;;;12.18;6.35;;;;;;;27.19;52.59;100964.97;6304824;22;20663;-76
2023/07/13 03:06:24;;;;;;;13.70;6.37;;;;;;;27.18;52.35;100979.66;6301027;22;20895;-76
2023/07/13 03:08:50;;;;;;;12.80;6.10;;;;;;;27.11;52.39;100975.59;6301980;22;20830;-76
2023/07/13 03:11:19;;;;;;;12.27;6.60;;;;;;;27.12;52.69;100975.31;6301969;22;20675;-76
2023/07/13 03:13:45;;;;;;;13.55;6.80;;;;;;;27.14;52.44;100978.56;6277696;22;20415;-76
2023/07/13 03:16:11;;;;;;;15.87;7.23;;;;;;;27.14;52.18;100980.50;6275167;22;20720;-76
2023/07/13 03:18:37;;;;;;;14.20;6.47;;;;;;;27.07;52.57;100984.28;6303277;22;20852;-75
2023/07/13 03:21:04;;;;;;;15.43;6.85;;;;;;;26.96;53.59;100985.41;6304801;22;20403;-76
2023/07/13 03:23:30;;;;;;;15.02;6.78;;;;;;;26.83;53.96;100986.78;6304606;22;20376;-76
2023/07/13 03:26:21;;;;;;;14.10;7.00;;;;;;;26.60;54.61;100993.53;6304785;22;20342;-76
2023/07/13 03:28:47;;;;;;;15.80;7.10;;;;;;;26.57;54.43;100980.47;6298792;22;20361;-76
2023/07/13 03:31:16;;;;;;;12.23;6.97;;;;;;;26.79;54.13;100982.94;6304605;22;20337;-76
2023/07/13 03:33:42;;;;;;;13.73;6.63;;;;;;;26.83;53.84;100975.06;6304713;22;20419;-76
2023/07/13 03:36:18;;;;;;;14.32;7.47;;;;;;;26.77;53.91;100970.72;6304900;22;20337;-77
2023/07/13 03:38:55;;;;;;;12.05;6.90;;;;;;;26.83;53.70;100961.44;6277767;22;20364;-77
2023/07/13 03:41:22;;;;;;;14.75;6.68;;;;;;;26.85;53.57;100970.19;6304750;22;20338;-77
2023/07/13 03:43:48;;;;;;;15.30;7.00;;;;;;;26.96;53.31;100973.72;6304423;22;20362;-76
2023/07/13 03:46:14;;;;;;;14.55;6.70;;;;;;;27.03;53.07;100975.06;6304559;22;20430;-77
2023/07/13 03:48:44;;;;;;;11.97;6.60;;;;;;;27.07;52.88;100975.31;6304774;22;20755;-76
2023/07/13 03:51:10;;;;;;;10.43;6.57;;;;;;;27.17;52.57;100975.31;6304778;22;20428;-76
2023/07/13 03:53:42;;;;;;;12.85;6.25;;;;;;;27.15;52.66;100984.81;6304645;22;20348;-75
2023/07/13 03:56:08;;;;;;;14.98;6.82;;;;;;;27.02;52.63;100981.56;6304300;22;20492;-75
2023/07/13 03:58:39;;;;;;;12.93;6.55;;;;;;;26.91;52.90;100985.41;6304320;22;20353;-76
2023/07/13 04:01:06;;;;;;;14.13;6.70;;;;;;;26.97;52.74;100991.66;6303326;22;20802;-75
2023/07/13 04:03:33;;;;;;;13.75;6.20;;;;;;;26.98;52.57;100982.41;6304379;22;20806;-76
2023/07/13 04:06:04;;;;;;;14.10;6.93;;;;;;;27.11;52.26;100981.03;6304300;22;20353;-75
2023/07/13 04:08:32;;;;;;;16.83;6.88;;;;;;;27.25;51.96;100982.91;6302601;22;20345;-75
2023/07/13 04:10:59;;;;;;;13.77;6.47;;;;;;;27.36;51.83;100978.28;6303807;22;20337;-76
2023/07/13 04:13:25;;;;;;;12.27;5.80;;;;;;;27.49;51.76;100981.50;6303464;22;20869;-75
2023/07/13 04:15:52;;;;;;;17.15;6.57;;;;;;;27.67;51.41;100986.34;6304516;22;20450;-75
2023/07/13 04:18:19;;;;;;;14.55;6.47;;;;;;;27.81;51.16;100984.66;6304945;22;20334;-76
2023/07/13 04:20:45;;;;;;;18.02;6.40;;;;;;;27.91;50.93;100983.00;6304805;22;20345;-76
2023/07/13 04:23:11;;;;;;;13.90;6.45;;;;;;;27.96;51.05;100978.34;6304474;22;20365;-76
2023/07/13 04:25:36;;;;;;;11.23;6.57;;;;;;;28.13;51.02;100988.09;6304636;22;20342;-75
2023/07/13 04:28:03;;;;;;;13.93;7.07;;;;;;;28.23;51.48;100996.19;6304531;22;20356;-75
2023/07/13 04:30:29;;;;;;;15.13;7.45;;;;;;;28.39;51.53;100996.91;6304593;22;20338;-75
2023/07/13 04:32:54;;;;;;;11.25;6.93;;;;;;;28.58;52.01;100995.16;6304291;22;20484;-75
2023/07/13 04:35:20;;;;;;;17.07;7.87;;;;;;;28.69;51.74;100993.16;6304623;22;20334;-75
2023/07/13 04:37:48;;;;;;;16.35;9.07;;;;;;;28.76;52.22;100993.66;6277183;22;20338;-76
2023/07/13 04:40:14;;;;;;;15.50;8.35;;;;;;;28.83;52.39;100993.34;6304619;22;20329;-76
2023/07/13 04:42:39;;;;;;;14.30;8.50;;;;;;;28.97;52.43;100998.94;6303983;22;20366;-76
2023/07/13 04:45:07;;;;;;;11.80;7.53;;;;;;;29.02;51.94;100998.06;6305200;22;20346;-77
2023/07/13 04:47:32;;;;;;;13.98;7.80;;;;;;;29.13;51.27;101000.41;6304700;22;20349;-76
2023/07/13 04:49:58;;;;;;;14.83;7.57;;;;;;;29.20;51.28;100999.31;6305285;22;20337;-76
2023/07/13 04:52:24;;;;;;;12.20;7.40;;;;;;;29.21;51.05;100990.84;6304400;22;20717;-76
2023/07/13 04:54:49;;;;;;;16.25;7.18;;;;;;;29.34;50.58;100995.59;6304259;22;20373;-76
2023/07/13 04:57:15;;;;;;;15.40;7.80;;;;;;;29.40;50.30;100995.53;6303715;22;20377;-75
2023/07/13 04:59:41;;;;;;;15.30;7.90;;;;;;;29.55;49.89;101000.84;6304184;22;20345;-76
2023/07/13 05:02:06;;;;;;;15.80;7.63;;;;;;;29.65;49.89;101008.09;6304306;22;20703;-76
2023/07/13 05:04:32;;;;;;;13.90;8.05;;;;;;;29.76;49.59;101011.53;6306745;22;20342;-77
2023/07/13 05:06:59;;;;;;;14.70;7.90;;;;;;;29.88;49.41;101011.94;6279686;22;20832;-75
2023/07/13 05:09:24;;;;;;;18.98;8.48;;;;;;;30.01;49.25;101011.22;6306346;22;20427;-76
2023/07/13 05:11:50;;;;;;;13.10;7.70;;;;;;;30.13;48.87;101013.53;6306194;22;20338;-76
2023/07/13 05:14:16;;;;;;;15.27;8.00;;;;;;;30.30;48.60;101010.25;6306568;22;20395;-76
2023/07/13 05:16:42;;;;;;;14.65;8.10;;;;;;;30.40;48.24;101018.38;6307188;22;20333;-76
2023/07/13 05:19:08;;;;;;;29.90;9.03;;;;;;;30.47;48.03;101012.53;6280213;22;20782;-76
2023/07/13 05:21:33;;;;;;;14.38;8.23;;;;;;;30.63;47.72;101018.53;6306837;22;20419;-76
2023/07/13 05:23:59;;;;;;;16.93;8.10;;;;;;;30.65;47.51;101027.28;6306616;22;20811;-76
2023/07/13 05:26:24;;;;;;;15.07;8.50;;;;;;;30.62;47.39;101011.47;6306383;22;20348;-77
2023/07/13 05:28:50;;;;;;;17.40;8.50;;;;;;;30.59;47.64;101017.53;6307021;22;20775;-77
2023/07/13 05:31:15;;;;;;;16.40;8.27;;;;;;;30.69;47.25;101023.66;6307561;22;20352;-77
2023/07/13 05:33:41;;;;;;;13.10;8.52;;;;;;;30.60;47.45;101021.91;6306586;22;20381;-76
2023/07/13 05:36:07;;;;;;;14.97;8.40;;;;;;;30.74;47.20;101022.75;6307042;22;20782;-76
2023/07/13 05:38:32;;;;;;;17.37;8.00;;;;;;;30.84;46.58;101005.34;6306891;22;20405;-75
2023/07/13 05:40:58;;;;;;;12.32;8.48;;;;;;;30.91;46.68;101015.91;6305619;22;20413;-76
2023/07/13 05:43:25;;;;;;;13.32;8.68;;;;;;;30.99;46.36;101020.72;6307058;22;20353;-76
2023/07/13 05:45:55;;;;;;;16.60;8.85;;;;;;;31.08;46.59;101018.09;6307129;22;20344;-76
2023/07/13 05:48:21;;;;;;;16.30;8.87;;;;;;;31.23;46.45;100999.47;6307010;22;20338;-77
2023/07/13 05:50:47;;;;;;;12.52;8.85;;;;;;;31.25;46.26;101008.19;6306380;22;20338;-75
2023/07/13 05:53:12;;;;;;;14.00;8.93;;;;;;;31.32;46.11;101007.81;6307142;22;20754;-76
2023/07/13 05:55:49;;;;;;;15.40;9.27;;;;;;;31.40;46.25;101007.13;6307006;22;20656;-76
2023/07/13 05:58:16;;;;;;;14.45;9.52;;;;;;;31.47;45.88;101012.16;6279870;22;20412;-76
2023/07/13 06:00:42;;;;;;;14.43;9.27;;;;;;;31.56;45.90;101001.34;6279789;22;20346;-76
2023/07/13 06:03:07;;;;;;;15.63;9.47;;;;;;;31.63;45.66;101012.72;6306991;22;20728;-76
2023/07/13 06:05:35;;;;;;;16.27;9.60;;;;;;;31.68;46.00;101004.38;6307674;22;20956;-75
2023/07/13 06:08:01;;;;;;;18.15;9.68;;;;;;;31.60;46.18;100996.88;6305751;22;20368;-75
2023/07/13 06:10:26;;;;;;;17.77;8.90;;;;;;;31.63;45.46;100997.06;6306019;22;20333;-76
2023/07/13 06:12:52;;;;;;;16.00;8.67;;;;;;;31.74;45.65;101005.91;6305300;22;20340;-77
2023/07/13 06:15:18;;;;;;;16.13;9.43;;;;;;;31.82;45.43;101001.66;6303814;22;20365;-75
2023/07/13 06:17:43;;;;;;;18.80;9.35;;;;;;;31.91;45.64;101001.72;6305004;22;20651;-75
2023/07/13 06:20:09;;;;;;;15.57;8.83;;;;;;;32.13;44.36;100992.78;6306199;22;20789;-76
2023/07/13 06:22:35;;;;;;;14.23;8.75;;;;;;;32.18;44.17;100987.19;6278790;22;20424;-76
2023/07/13 06:25:00;;;;;;;23.13;9.35;;;;;;;32.21;44.41;100994.75;6306550;22;20370;-77
2023/07/13 06:27:26;;;;;;;19.73;8.73;;;;;;;32.28;43.89;101002.56;6306340;22;20356;-76
2023/07/13 06:29:51;;;;;;;13.73;7.63;;;;;;;32.40;42.00;100989.13;6306684;22;20349;-77
2023/07/13 06:32:17;;;;;;;13.50;6.93;;;;;;;32.45;41.42;100985.44;6302930;22;20796;-77
2023/07/13 06:34:42;;;;;;;15.37;8.50;;;;;;;32.47;41.83;100980.47;6296902;22;20851;-76
2023/07/13 06:37:09;;;;;;;13.70;7.47;;;;;;;32.54;41.46;100987.13;6299644;22;20346;-76
2023/07/13 06:39:35;;;;;;;12.88;7.50;;;;;;;32.53;41.99;100982.75;6303723;22;20613;-76
2023/07/13 06:42:00;;;;;;;16.30;7.70;;;;;;;32.76;41.60;100996.50;6302984;22;20793;-76
2023/07/13 06:44:26;;;;;;;15.33;7.40;;;;;;;32.80;41.07;100994.75;6303233;22;20983;-75
2023/07/13 06:46:51;;;;;;;12.10;6.87;;;;;;;32.73;41.30;100997.94;6303327;22;20342;-76
2023/07/13 06:49:17;;;;;;;10.83;7.10;;;;;;;32.95;40.90;100990.78;6305902;22;20342;-76
2023/07/13 06:51:42;;;;;;;12.70;6.77;;;;;;;33.06;40.60;100997.66;6305464;22;20376;-76
2023/07/13 06:54:07;;;;;;;14.57;7.33;;;;;;;33.12;40.45;100984.59;6306204;22;20337;-77
2023/07/13 06:56:33;;;;;;;16.73;7.17;;;;;;;33.21;40.03;100999.19;6306078;22;20877;-76
2023/07/13 06:58:58;;;;;;;17.13;6.97;;;;;;;33.33;39.13;100993.91;6305600;22;20342;-75
2023/07/13 07:01:24;;;;;;;11.17;6.87;;;;;;;33.17;38.82;101003.72;6305768;22;20345;-76
2023/07/13 07:03:49;;;;;;;14.27;7.30;;;;;;;33.04;39.28;100996.34;6305822;22;20462;-76
2023/07/13 07:06:20;;;;;;;17.77;7.33;;;;;;;33.13;39.68;100998.03;6305855;22;20360;-75
2023/07/13 07:08:46;;;;;;;13.57;7.30;;;;;;;33.43;38.72;101009.31;6306114;22;20347;-76
2023/07/13 07:11:14;;;;;;;13.80;7.28;;;;;;;33.75;38.35;101009.28;6306473;22;20338;-75
2023/07/13 07:13:40;;;;;;;15.60;7.67;;;;;;;33.90;37.86;101015.13;6280120;22;20345;-76
2023/07/13 07:16:06;;;;;;;15.90;7.70;;;;;;;34.01;37.64;101021.13;6307023;22;20334;-76
2023/07/13 07:18:32;;;;;;;11.73;7.00;;;;;;;34.11;37.73;101031.00;6306213;22;20334;-75
2023/07/13 07:20:57;;;;;;;14.10;7.82;;;;;;;34.35;37.32;101038.81;6305929;22;20391;-76
2023/07/13 07:23:23;;;;;;;14.02;7.55;;;;;;;34.23;37.20;101044.16;6305354;22;20362;-75
2023/07/13 07:25:48;;;;;;;17.75;7.43;;;;;;;34.23;36.96;101046.91;6305487;22;20434;-76
2023/07/13 07:28:17;;;;;;;16.85;7.20;;;;;;;33.98;37.21;101038.28;6305261;22;20337;-75
2023/07/13 07:30:46;;;;;;;12.47;7.17;;;;;;;34.23;37.30;101044.97;6305856;22;20781;-75
2023/07/13 07:33:13;;;;;;;14.45;7.30;;;;;;;34.23;37.06;101042.22;6279340;22;20659;-76
2023/07/13 07:35:38;;;;;;;16.77;7.82;;;;;;;34.18;37.35;101042.38;6278630;22;20428;-75
2023/07/13 07:38:04;;;;;;;13.88;7.88;;;;;;;33.97;37.46;101046.84;6305706;22;20774;-76
2023/07/13 07:40:30;;;;;;;18.27;8.20;;;;;;;34.03;36.98;101043.63;6305739;22;20334;-76
2023/07/13 07:42:56;;;;;;;14.02;7.25;;;;;;;34.26;37.44;101040.75;6306745;22;20750;-75
2023/07/13 07:45:21;;;;;;;18.75;7.93;;;;;;;34.28;36.85;101044.78;6280864;22;20346;-75
2023/07/13 07:47:47;;;;;;;13.43;7.70;;;;;;;34.38;36.96;101046.44;6306015;22;20330;-75
2023/07/13 07:50:13;;;;;;;12.82;7.47;;;;;;;34.49;36.87;101044.16;6305604;22;20340;-77
2023/07/13 07:52:39;;;;;;;12.38;6.90;;;;;;;34.53;36.03;101042.38;6305739;22;20454;-77
2023/07/13 07:55:06;;;;;;;10.98;6.15;;;;;;;34.59;35.86;101043.00;6306537;22;20333;-77
2023/07/13 07:57:32;;;;;;;15.95;7.40;;;;;;;34.65;35.96;101037.03;6305464;22;20373;-75
2023/07/13 07:59:58;;;;;;;11.88;6.70;;;;;;;34.94;35.92;101035.53;6305380;22;20337;-75
2023/07/13 08:02:24;;;;;;;13.43;7.87;;;;;;;35.26;35.92;101021.53;6306160;22;20369;-76
2023/07/13 08:04:50;;;;;;;13.15;7.28;;;;;;;35.37;35.70;101020.03;6305090;22;20345;-76
2023/07/13 08:07:16;;;;;;;11.57;7.70;;;;;;;35.52;35.49;101013.16;6305188;22;20338;-76
2023/07/13 08:09:41;;;;;;;17.88;9.20;;;;;;;35.55;35.77;101016.06;6278088;22;20348;-75
2023/07/13 08:12:07;;;;;;;12.48;7.78;;;;;;;35.77;35.22;101014.19;6278363;22;20337;-76
2023/07/13 08:14:32;;;;;;;14.82;7.90;;;;;;;35.94;35.71;101016.00;6305268;22;20338;-75
2023/07/13 08:16:58;;;;;;;13.57;7.13;;;;;;;36.08;35.20;101013.00;6305119;22;20344;-75
2023/07/13 08:19:23;;;;;;;11.60;7.43;;;;;;;36.16;34.82;101009.38;6305131;22;20349;-75
2023/07/13 08:21:49;;;;;;;13.93;7.43;;;;;;;36.23;34.71;101017.94;6305346;22;20334;-75
2023/07/13 08:24:15;;;;;;;13.02;7.10;;;;;;;36.48;33.80;101013.34;6277940;22;20373;-75
2023/07/13 08:26:41;;;;;;;17.13;7.30;;;;;;;36.54;33.67;101009.22;6306184;22;20403;-76
2023/07/13 08:29:06;;;;;;;16.55;7.47;;;;;;;36.60;33.76;101007.03;6305270;22;20375;-76
2023/07/13 08:31:32;;;;;;;20.58;7.97;;;;;;;36.64;33.82;100994.16;6305965;22;20365;-76
2023/07/13 08:33:58;;;;;;;14.00;6.83;;;;;;;36.83;33.44;100996.44;6278534;22;20346;-76
2023/07/13 08:36:26;;;;;;;11.33;6.80;;;;;;;36.98;32.79;100994.94;6278389;22;20346;-76
2023/07/13 08:38:51;;;;;;;12.88;6.80;;;;;;;36.97;33.40;100998.88;6305867;22;20337;-77
2023/07/13 08:41:18;;;;;;;16.80;6.87;;;;;;;37.06;33.20;100998.75;6305346;22;20650;-77
2023/07/13 08:43:48;;;;;;;10.55;6.47;;;;;;;37.19;32.73;101003.19;6305359;22;20366;-76
2023/07/13 08:46:35;;;;;;;9.68;6.50;;;;;;;37.22;32.67;100988.69;6306099;22;20338;-75
2023/07/13 08:49:12;;;;;;;12.73;5.80;;;;;;;37.29;32.08;100994.44;6277704;22;20422;-77
2023/07/13 08:51:55;;;;;;;10.02;5.72;;;;;;;37.40;31.78;100996.72;6305668;22;20822;-76
2023/07/13 08:54:39;;;;;;;12.65;5.80;;;;;;;37.44;31.63;100979.13;6305974;22;20495;-76
2023/07/13 08:57:14;;;;;;;13.68;5.68;;;;;;;37.48;31.39;100960.66;6305293;22;20366;-77
2023/07/13 08:59:41;;;;;;;18.77;6.07;;;;;;;37.62;31.80;100957.53;6304464;22;20338;-75
2023/07/13 09:02:28;;;;;;;13.63;5.70;;;;;;;37.86;30.98;100959.47;6304805;22;20389;-76
2023/07/13 09:05:00;;;;;;;12.23;5.80;;;;;;;37.85;31.15;100960.63;6277727;22;20342;-76
2023/07/13 09:07:49;;;;;;;10.70;5.50;;;;;;;37.86;30.67;100953.13;6304477;22;20896;-75
2023/07/13 09:10:25;;;;;;;10.80;4.93;;;;;;;37.96;30.09;100944.34;6305839;22;20342;-75
2023/07/13 09:13:14;;;;;;;14.80;6.30;;;;;;;38.11;30.43;100951.13;6304882;22;20386;-76
2023/07/13 09:15:43;;;;;;;12.63;5.72;;;;;;;38.19;29.91;100954.88;6289857;22;20353;-76
2023/07/13 09:18:18;;;;;;;10.20;5.80;;;;;;;38.20;30.59;100965.59;6305443;22;20801;-77
2023/07/13 09:20:52;;;;;;;13.20;6.07;;;;;;;38.24;30.70;100958.19;6306920;22;20782;-75
2023/07/13 09:23:21;;;;;;;10.48;5.20;;;;;;;38.31;30.43;100968.69;6305299;22;20365;-75
2023/07/13 09:25:54;;;;;;;10.57;5.53;;;;;;;38.33;30.12;100957.25;6304868;22;20413;-76
2023/07/13 09:28:27;;;;;;;14.23;5.60;;;;;;;38.49;29.63;100957.28;6306498;22;20775;-75
2023/07/13 09:31:04;;;;;;;14.60;5.40;;;;;;;38.57;30.16;100959.94;6304429;22;20334;-77
2023/07/13 09:33:31;;;;;;;12.05;5.13;;;;;;;38.67;29.69;100964.13;6305557;22;20683;-75
2023/07/13 09:35:58;;;;;;;12.05;6.03;;;;;;;38.74;29.29;100944.13;6307193;22;20387;-75
2023/07/13 09:38:28;;;;;;;11.85;5.55;;;;;;;38.76;29.05;100939.03;6308474;22;20415;-77
2023/07/13 09:41:41;;;;;;;12.18;5.53;;;;;;;38.88;28.90;100929.78;6302773;22;20334;-77
2023/07/13 09:44:13;;;;;;;14.05;5.43;;;;;;;38.90;28.47;100921.97;6290604;22;20373;-77
2023/07/13 09:46:43;;;;;;;11.57;4.93;;;;;;;38.95;28.12;100918.88;6273961;22;20342;-76
2023/07/13 09:49:12;;;;;;;10.73;4.90;;;;;;;38.89;27.87;100904.50;6301052;22;20975;-76
2023/07/13 09:51:41;;;;;;;10.20;4.32;;;;;;;38.90;27.46;100902.56;6303260;22;20334;-77
2023/07/13 09:54:18;;;;;;;9.75;3.90;;;;;;;38.92;27.23;100898.25;6303232;22;20334;-76
2023/07/13 09:56:44;;;;;;;8.43;4.00;;;;;;;39.08;26.88;100892.72;6276564;22;20370;-77
2023/07/13 09:59:21;;;;;;;7.82;4.00;;;;;;;39.17;25.95;100896.09;6301879;22;20362;-76
2023/07/13 10:01:48;;;;;;;9.73;3.83;;;;;;;39.16;25.99;100886.16;6302031;22;20334;-76
2023/07/13 10:04:18;;;;;;;9.80;3.70;;;;;;;39.03;23.58;100886.66;6302067;22;20841;-76
2023/07/13 10:06:44;;;;;;;12.50;3.80;;;;;;;39.11;22.92;100874.53;6302531;22;20397;-76
2023/07/13 10:09:10;;;;;;;8.95;3.55;;;;;;;38.83;22.51;100891.28;6302063;22;20848;-75
2023/07/13 10:11:39;;;;;;;8.38;3.72;;;;;;;38.63;22.80;100871.81;6303449;22;20361;-75
2023/07/13 10:14:39;;;;;;;8.63;3.35;;;;;;;38.79;21.91;100880.13;6304994;22;20358;-76
2023/07/13 10:17:08;;;;;;;10.70;3.75;;;;;;;38.87;22.29;100876.34;6304072;22;20364;-76
2023/07/13 10:19:35;;;;;;;8.88;3.60;;;;;;;38.67;22.40;100883.78;6281374;22;20352;-76
2023/07/13 10:22:10;;;;;;;8.43;3.70;;;;;;;38.86;22.59;100866.44;6307410;22;20341;-76
2023/07/13 10:24:38;;;;;;;11.30;3.35;;;;;;;39.25;23.24;100854.66;6307427;22;20407;-76
2023/07/13 10:27:40;;;;;;;6.78;3.47;;;;;;;39.43;24.02;100855.03;6307746;22;20334;-75
2023/07/13 10:30:22;;;;;;;11.80;4.23;;;;;;;39.44;23.31;100846.38;6280765;22;20346;-76
2023/07/13 10:32:50;;;;;;;12.90;4.00;;;;;;;39.57;22.90;100850.63;6279850;22;20352;-76
2023/07/13 10:35:20;;;;;;;10.55;3.90;;;;;;;39.61;22.45;100850.69;6306850;22;20326;-76
2023/07/13 10:37:54;;;;;;;10.57;3.70;;;;;;;39.82;22.53;100850.31;6305913;22;20330;-76
2023/07/13 10:40:35;;;;;;;10.05;3.65;;;;;;;39.82;22.72;100838.44;6278957;22;20346;-76
2023/07/13 10:43:04;;;;;;;12.48;3.90;;;;;;;39.85;22.06;100844.03;6305903;22;20365;-75
2023/07/13 10:45:36;;;;;;;8.82;3.40;;;;;;;39.78;21.36;100845.84;6305563;22;20334;-76
2023/07/13 10:48:02;;;;;;;10.52;3.95;;;;;;;39.59;21.18;100839.16;6279391;22;20334;-76
2023/07/13 10:50:32;;;;;;;11.85;3.80;;;;;;;39.75;21.43;100837.09;6307308;22;20344;-76
2023/07/13 10:53:19;;;;;;;7.68;3.45;;;;;;;39.73;21.15;100827.56;6307867;22;20330;-78
2023/07/13 10:55:53;;;;;;;7.45;3.33;;;;;;;39.88;21.79;100840.50;6306840;22;20341;-75
2023/07/13 10:58:28;;;;;;;12.30;4.00;;;;;;;39.96;21.98;100830.41;6305984;22;20380;-77
2023/07/13 11:01:05;;;;;;;11.07;3.50;;;;;;;40.05;21.11;100832.91;6305904;22;20349;-75
2023/07/13 11:03:37;;;;;;;9.55;3.78;;;;;;;39.94;20.93;100825.22;6307494;22;20388;-76
2023/07/13 11:06:12;;;;;;;11.18;5.95;;;;;;;40.17;21.81;100835.53;6306238;22;20338;-75
2023/07/13 11:08:55;;;;;;;13.57;4.15;;;;;;;40.22;20.58;100821.31;6280105;22;20350;-75
2023/07/13 11:11:23;;;;;;;9.93;4.07;;;;;;;40.23;20.67;100811.84;6306568;22;20342;-75
2023/07/13 11:13:49;;;;;;;11.38;3.90;;;;;;;40.29;21.28;100815.91;6305811;22;20392;-76
2023/07/13 11:16:17;;;;;;;15.97;4.30;;;;;;;39.82;19.45;100813.44;6305721;22;20355;-77
2023/07/13 11:19:06;;;;;;;11.18;3.88;;;;;;;39.84;19.47;100814.69;6307036;22;20790;-78
2023/07/13 11:21:31;;;;;;;13.27;3.83;;;;;;;39.85;19.64;100819.06;6290392;22;20382;-75
2023/07/13 11:24:13;;;;;;;11.60;4.20;;;;;;;39.96;19.47;100810.97;6307021;22;20369;-75